Time;durP1;ratioP1;P1;durP2;ratioP2;P2;SDS_P1;SDS_P2;PMS_P1;PMS_P2;Temp;Humidity;BMP_temperature;BMP_pressure;BME280_temperature;BME280_humidity;BME280_pressure;Samples;Min_cycle;Max_cycle;Signal;HPM_P1;HPM_P2
2022/04/24 00:01:45;;;;;;;10.50;9.20;;;;;;;6.74;73.39;99547.90;88283;1271;80445;-67
2022/04/24 00:03:54;;;;;;;11.80;9.30;;;;;;;6.72;73.52;99548.04;88285;1271;99473;-69
2022/04/24 00:06:03;;;;;;;12.50;9.20;;;;;;;6.68;73.42;99550.34;88293;1271;88790;-70
2022/04/24 00:08:12;;;;;;;10.70;9.00;;;;;;;6.62;73.38;99549.14;88297;1271;95491;-60
2022/04/24 00:10:21;;;;;;;11.60;9.40;;;;;;;6.58;73.45;99545.89;88305;1271;81241;-60
2022/04/24 00:12:30;;;;;;;10.10;8.70;;;;;;;6.52;73.66;99545.28;88329;1271;82333;-59
2022/04/24 00:14:39;;;;;;;10.70;9.40;;;;;;;6.46;73.66;99543.66;88281;1271;98369;-60
2022/04/24 00:16:47;;;;;;;11.10;8.80;;;;;;;6.38;73.61;99537.11;88309;1271;88285;-59
2022/04/24 00:18:56;;;;;;;11.30;9.30;;;;;;;6.32;73.66;99536.02;88274;1271;93747;-60
2022/04/24 00:21:06;;;;;;;11.00;8.80;;;;;;;6.27;73.63;99535.37;88302;1271;79165;-62
2022/04/24 00:23:16;;;;;;;12.40;9.70;;;;;;;6.19;73.73;99532.80;88340;1272;82167;-60
2022/04/24 00:25:25;;;;;;;11.30;9.40;;;;;;;6.11;73.80;99531.61;88282;1271;98210;-59
2022/04/24 00:27:35;;;;;;;10.70;8.80;;;;;;;6.05;74.06;99529.86;88296;1271;88839;-70
2022/04/24 00:29:44;;;;;;;12.00;10.00;;;;;;;5.99;73.93;99526.43;88298;1271;94699;-69
2022/04/24 00:31:53;;;;;;;12.30;9.90;;;;;;;5.93;74.08;99524.71;88327;1271;80372;-59
2022/04/24 00:34:02;;;;;;;12.40;9.40;;;;;;;5.86;74.27;99525.67;88326;1271;80710;-61
2022/04/24 00:36:11;;;;;;;12.10;9.60;;;;;;;5.81;74.40;99527.77;88287;1271;99538;-61
2022/04/24 00:38:20;;;;;;;12.00;9.80;;;;;;;5.77;74.39;99526.17;88294;1271;87030;-60
2022/04/24 00:40:32;;;;;;;12.30;9.20;;;;;;;5.71;74.35;99528.14;88312;1271;95166;-60
2022/04/24 00:42:41;;;;;;;12.20;9.80;;;;;;;5.65;74.44;99528.48;88279;1271;81651;-60
2022/04/24 00:44:53;;;;;;;12.40;9.70;;;;;;;5.54;74.72;99535.40;88307;1271;82083;-60
2022/04/24 00:47:12;;;;;;;13.00;9.40;;;;;;;5.45;74.77;99540.31;88334;1271;99156;-61
2022/04/24 00:49:21;;;;;;;12.80;9.90;;;;;;;5.40;74.98;99539.14;88297;1271;88787;-59
2022/04/24 00:51:31;;;;;;;13.30;10.10;;;;;;;5.38;75.12;99544.17;88296;1271;94148;-59
2022/04/24 00:53:40;;;;;;;13.80;10.90;;;;;;;5.42;75.39;99548.01;88291;1271;78798;-70
2022/04/24 00:55:49;;;;;;;12.90;10.40;;;;;;;5.50;75.45;99542.59;88303;1271;82729;-70
2022/04/24 00:58:01;;;;;;;15.60;12.60;;;;;;;5.58;75.70;99543.08;88292;1271;98452;-60
2022/04/24 01:00:12;;;;;;;14.70;12.30;;;;;;;5.67;75.57;99543.31;88302;1271;88731;-60
2022/04/24 01:02:21;;;;;;;15.40;12.80;;;;;;;5.75;75.90;99542.84;88276;1271;95451;-72
2022/04/24 01:04:30;;;;;;;16.40;14.20;;;;;;;5.81;76.11;99544.27;88274;1273;79737;-69
2022/04/24 01:06:41;;;;;;;20.60;14.50;;;;;;;5.91;76.24;99542.95;88241;1273;83417;-68
2022/04/24 01:08:50;;;;;;;16.40;14.00;;;;;;;5.98;76.29;99537.66;88272;1272;100101;-70
2022/04/24 01:10:59;;;;;;;18.80;13.70;;;;;;;6.03;76.44;99539.54;88255;1273;88006;-70
2022/04/24 01:13:08;;;;;;;18.10;14.60;;;;;;;6.07;76.41;99540.20;88265;1273;95657;-60
2022/04/24 01:15:22;;;;;;;19.30;15.70;;;;;;;6.10;76.30;99539.77;88252;1273;80980;-59
2022/04/24 01:17:31;;;;;;;18.50;14.40;;;;;;;6.13;76.26;99544.59;88317;1273;80962;-59
2022/04/24 01:19:40;;;;;;;18.90;15.20;;;;;;;6.17;76.28;99540.98;88276;1274;98782;-59
2022/04/24 01:21:50;;;;;;;20.50;17.40;;;;;;;6.20;76.38;99546.45;88319;1271;88716;-60
2022/04/24 01:23:59;;;;;;;21.70;16.90;;;;;;;6.24;76.35;99541.18;88278;1271;94708;-61
2022/04/24 01:26:12;;;;;;;22.20;17.70;;;;;;;6.27;76.35;99544.32;88306;1271;80897;-60
2022/04/24 01:28:21;;;;;;;23.50;17.90;;;;;;;6.29;76.51;99543.52;88325;1274;81346;-69
2022/04/24 01:30:30;;;;;;;22.80;18.50;;;;;;;6.31;76.57;99543.39;88291;1271;99094;-71
2022/04/24 01:32:39;;;;;;;21.90;16.80;;;;;;;6.33;76.62;99542.02;88239;1271;88312;-71
2022/04/24 01:34:48;;;;;;;22.00;18.10;;;;;;;6.34;76.62;99537.98;88305;1271;95245;-70
2022/04/24 01:36:57;;;;;;;23.20;18.30;;;;;;;6.35;76.45;99534.63;88304;1271;82386;-61
2022/04/24 01:39:06;;;;;;;22.10;18.10;;;;;;;6.31;76.68;99532.95;88289;1271;80493;-60
2022/04/24 01:41:15;;;;;;;24.20;19.20;;;;;;;6.27;76.33;99532.21;88281;1274;100185;-60
2022/04/24 01:43:24;;;;;;;23.40;18.70;;;;;;;6.25;76.44;99531.13;88334;1271;87881;-60
2022/04/24 01:45:33;;;;;;;23.20;18.70;;;;;;;6.20;76.63;99528.70;88286;1271;94949;-61
2022/04/24 01:47:42;;;;;;;24.10;19.30;;;;;;;6.16;76.50;99532.17;88284;1271;81755;-69
2022/04/24 01:49:53;;;;;;;27.20;20.10;;;;;;;6.14;76.56;99532.54;88284;1271;81685;-69
2022/04/24 01:52:01;;;;;;;23.70;18.50;;;;;;;6.10;76.68;99531.60;88309;1271;97560;-69
2022/04/24 01:54:10;;;;;;;23.10;18.80;;;;;;;6.09;76.74;99529.09;88290;1272;89088;-70
2022/04/24 01:56:19;;;;;;;24.60;18.80;;;;;;;6.09;76.67;99531.73;88263;1274;95374;-71
2022/04/24 01:58:28;;;;;;;23.00;17.90;;;;;;;6.09;76.73;99533.14;88264;1273;79818;-70
2022/04/24 02:00:37;;;;;;;23.50;18.10;;;;;;;6.09;76.94;99534.23;88327;1273;80038;-70
2022/04/24 02:02:46;;;;;;;24.10;18.50;;;;;;;6.10;76.95;99531.09;88365;1271;99895;-60
2022/04/24 02:04:55;;;;;;;22.50;18.30;;;;;;;6.10;76.74;99529.82;88296;1271;88937;-60
2022/04/24 02:07:04;;;;;;;22.60;18.40;;;;;;;6.08;77.04;99528.92;88305;1271;93256;-70
2022/04/24 02:09:17;;;;;;;24.40;19.40;;;;;;;6.11;76.89;99528.23;88374;1271;78215;-70
2022/04/24 02:11:29;;;;;;;25.00;19.00;;;;;;;6.17;77.08;99526.83;88316;1271;82078;-70
2022/04/24 02:13:38;;;;;;;23.40;18.00;;;;;;;6.20;77.04;99529.08;88325;1271;99298;-60
2022/04/24 02:15:47;;;;;;;23.30;18.30;;;;;;;6.23;77.02;99530.77;88283;1271;88173;-60
2022/04/24 02:17:56;;;;;;;22.20;17.30;;;;;;;6.25;77.17;99532.77;88309;1271;95203;-60
2022/04/24 02:20:06;;;;;;;23.50;18.00;;;;;;;6.29;77.27;99535.15;88286;1271;79195;-60
2022/04/24 02:22:19;;;;;;;23.40;17.00;;;;;;;6.35;77.25;99539.77;88300;1271;83438;-70
2022/04/24 02:24:28;;;;;;;23.80;16.60;;;;;;;6.41;77.03;99543.77;88383;1271;98472;-70
2022/04/24 02:26:40;;;;;;;24.30;16.70;;;;;;;6.46;77.05;99545.14;88388;1270;88786;-69
2022/04/24 02:28:49;;;;;;;23.30;16.30;;;;;;;6.49;77.02;99546.19;88272;1270;94266;-69
2022/04/24 02:31:02;;;;;;;23.90;16.00;;;;;;;6.48;77.15;99546.78;88278;1271;82899;-70
2022/04/24 02:33:11;;;;;;;21.10;16.40;;;;;;;6.52;76.93;99545.45;88425;1271;80832;-70
2022/04/24 02:35:20;;;;;;;19.20;15.70;;;;;;;6.57;76.90;99550.05;88290;1271;100652;-68
2022/04/24 02:37:32;;;;;;;21.50;16.20;;;;;;;6.60;77.07;99551.33;88343;1271;88933;-69
2022/04/24 02:39:44;;;;;;;21.40;15.80;;;;;;;6.62;76.93;99550.70;88283;1271;95133;-69
2022/04/24 02:41:53;;;;;;;21.80;15.80;;;;;;;6.64;76.73;99549.79;88279;1272;79985;-70
2022/04/24 02:44:05;;;;;;;19.70;15.70;;;;;;;6.63;76.97;99547.51;88309;1271;80496;-70
2022/04/24 02:46:17;;;;;;;21.40;16.10;;;;;;;6.60;76.70;99546.59;88291;1271;99358;-70
2022/04/24 02:48:29;;;;;;;21.80;16.40;;;;;;;6.60;76.66;99545.80;88391;1271;86472;-71
2022/04/24 02:50:39;;;;;;;19.30;15.70;;;;;;;6.61;76.80;99543.70;88259;1271;96521;-70
2022/04/24 02:52:54;;;;;;;20.40;15.20;;;;;;;6.60;76.77;99541.34;88316;1271;81770;-60
2022/04/24 02:55:07;;;;;;;19.80;15.10;;;;;;;6.57;76.85;99541.16;88384;1271;83640;-60
2022/04/24 02:57:16;;;;;;;22.10;16.20;;;;;;;6.57;76.69;99539.52;88420;1271;100581;-69
2022/04/24 02:59:25;;;;;;;23.10;17.10;;;;;;;6.60;76.62;99540.80;88438;1271;86889;-68
2022/04/24 03:01:35;;;;;;;21.70;16.00;;;;;;;6.61;76.64;99542.84;88302;1271;94159;-64
2022/04/24 03:03:45;;;;;;;21.50;16.60;;;;;;;6.59;76.62;99545.83;88310;1271;78305;-69
2022/04/24 03:05:55;;;;;;;22.70;16.10;;;;;;;6.60;76.61;99542.66;88331;1271;81743;-69
2022/04/24 03:08:04;;;;;;;19.60;15.00;;;;;;;6.61;76.84;99544.61;88406;1271;97966;-59
2022/04/24 03:10:15;;;;;;;19.10;15.70;;;;;;;6.60;76.84;99543.13;88375;1271;88621;-59
2022/04/24 03:12:24;;;;;;;21.30;16.00;;;;;;;6.59;76.61;99537.95;88291;1271;95769;-60
2022/04/24 03:14:33;;;;;;;19.30;15.10;;;;;;;6.59;76.68;99538.78;88287;1271;79000;-61
2022/04/24 03:16:42;;;;;;;20.00;16.00;;;;;;;6.57;76.84;99537.50;88290;1271;82319;-71
2022/04/24 03:18:54;;;;;;;23.10;15.60;;;;;;;6.59;76.58;99538.23;88275;1271;98736;-69
2022/04/24 03:21:03;;;;;;;19.60;15.50;;;;;;;6.56;76.86;99536.42;88279;1271;90090;-71
2022/04/24 03:23:11;;;;;;;20.00;15.90;;;;;;;6.56;76.92;99539.27;88303;1271;95594;-70
2022/04/24 03:25:21;;;;;;;19.20;15.90;;;;;;;6.60;76.59;99534.90;88254;1271;79841;-70
2022/04/24 03:27:33;;;;;;;19.60;14.90;;;;;;;6.58;76.82;99530.59;88307;1271;80781;-60
2022/04/24 03:29:45;;;;;;;20.30;14.60;;;;;;;6.59;76.68;99536.88;88303;1271;99928;-60
2022/04/24 03:31:57;;;;;;;19.40;14.60;;;;;;;6.57;76.84;99534.15;88393;1269;87951;-60
2022/04/24 03:34:07;;;;;;;19.10;14.40;;;;;;;6.55;76.79;99537.19;88294;1271;94995;-60
2022/04/24 03:36:16;;;;;;;19.40;14.60;;;;;;;6.53;76.99;99535.55;88377;1271;79454;-59
2022/04/24 03:38:27;;;;;;;18.60;13.60;;;;;;;6.51;77.14;99535.86;88428;1271;83405;-70
2022/04/24 03:40:39;;;;;;;19.10;14.00;;;;;;;6.51;77.17;99537.30;88370;1271;97123;-70
2022/04/24 03:42:49;;;;;;;18.80;13.20;;;;;;;6.53;77.08;99538.48;88270;1271;87678;-70
2022/04/24 03:45:01;;;;;;;18.30;12.70;;;;;;;6.52;77.03;99537.79;87114;1271;1587166;-69
2022/04/24 03:47:11;;;;;;;16.10;12.90;;;;;;;6.53;77.12;99542.11;88303;1271;78413;-70
2022/04/24 03:49:20;;;;;;;17.20;12.70;;;;;;;6.56;77.01;99535.71;88340;1271;80587;-69
2022/04/24 03:51:30;;;;;;;14.30;12.10;;;;;;;6.60;77.26;99535.04;88301;1271;99495;-69
2022/04/24 03:53:39;;;;;;;17.40;12.40;;;;;;;6.63;77.14;99536.42;88317;1271;89179;-71
2022/04/24 03:55:50;;;;;;;16.90;12.50;;;;;;;6.65;77.12;99535.98;88278;1271;95296;-70
2022/04/24 03:57:59;;;;;;;16.00;12.50;;;;;;;6.68;77.14;99535.06;88373;1271;81664;-60
2022/04/24 04:00:12;;;;;;;15.70;11.90;;;;;;;6.73;77.27;99536.25;88351;1271;83050;-59
2022/04/24 04:02:20;;;;;;;16.50;11.10;;;;;;;6.80;77.19;99533.82;88297;1271;99626;-69
2022/04/24 04:04:30;;;;;;;15.60;12.20;;;;;;;6.82;77.24;99530.73;88313;1271;89632;-70
2022/04/24 04:06:38;;;;;;;16.40;11.40;;;;;;;6.85;77.10;99534.59;88273;1271;93191;-71
2022/04/24 04:08:47;;;;;;;15.90;11.90;;;;;;;6.87;77.19;99537.09;88284;1271;80848;-70
2022/04/24 04:10:56;;;;;;;15.40;11.60;;;;;;;6.92;77.12;99534.97;88293;1271;83002;-71
2022/04/24 04:13:09;;;;;;;14.50;11.40;;;;;;;6.93;77.01;99534.53;88327;1271;99595;-60
2022/04/24 04:15:18;;;;;;;17.00;11.80;;;;;;;6.94;76.94;99535.16;88376;1271;88660;-60
2022/04/24 04:17:27;;;;;;;13.50;11.20;;;;;;;7.00;76.95;99533.46;88310;1271;95084;-70
2022/04/24 04:19:36;;;;;;;16.10;11.80;;;;;;;7.08;76.91;99535.71;88375;1271;79069;-72
2022/04/24 04:21:48;;;;;;;15.60;11.10;;;;;;;7.12;76.93;99537.36;88304;1271;82223;-69
2022/04/24 04:23:56;;;;;;;17.10;11.30;;;;;;;7.13;76.99;99538.77;88287;1271;100220;-70
2022/04/24 04:26:08;;;;;;;18.60;12.30;;;;;;;7.17;77.01;99545.31;88375;1271;88970;-70
2022/04/24 04:28:17;;;;;;;17.30;12.00;;;;;;;7.23;76.84;99548.91;88370;1271;94337;-69
2022/04/24 04:30:29;;;;;;;15.90;11.40;;;;;;;7.29;76.79;99546.46;88373;1271;79908;-70
2022/04/24 04:32:38;;;;;;;15.80;11.80;;;;;;;7.37;76.58;99548.38;88381;1271;80718;-58
2022/04/24 04:34:47;;;;;;;17.90;11.40;;;;;;;7.44;76.44;99551.11;88303;1271;98490;-59
2022/04/24 04:36:58;;;;;;;14.60;11.90;;;;;;;7.40;76.32;99545.84;88323;1271;89386;-69
2022/04/24 04:39:10;;;;;;;18.10;12.70;;;;;;;7.46;76.44;99547.04;88279;1271;95299;-69
2022/04/24 04:41:19;;;;;;;15.70;12.70;;;;;;;9.02;77.36;99542.70;88312;1271;77802;-70
2022/04/24 04:43:31;;;;;;;13.60;12.10;;;;;;;11.03;75.94;99534.05;88395;1271;81466;-70
2022/04/24 04:45:40;;;;;;;15.20;11.60;;;;;;;12.72;75.02;99530.20;88327;1271;98825;-71
2022/04/24 04:47:49;;;;;;;15.40;12.30;;;;;;;14.17;73.14;99530.11;88272;1271;88358;-70
2022/04/24 04:49:58;;;;;;;13.70;11.00;;;;;;;15.37;70.95;99526.14;88303;1271;93026;-70
2022/04/24 04:52:10;;;;;;;12.50;10.70;;;;;;;16.25;69.52;99530.52;88413;1271;80388;-59
2022/04/24 04:54:19;;;;;;;13.70;10.30;;;;;;;17.22;68.59;99520.91;88295;1271;81526;-59
2022/04/24 04:56:28;;;;;;;11.30;10.20;;;;;;;17.99;67.25;99514.73;88410;1271;99843;-60
2022/04/24 04:58:36;;;;;;;12.20;10.80;;;;;;;18.93;65.54;99510.34;88392;1271;88575;-60
2022/04/24 05:00:45;;;;;;;13.50;10.40;;;;;;;19.62;64.51;99509.20;88388;1271;96203;-59
2022/04/24 05:02:54;;;;;;;11.90;10.00;;;;;;;20.17;62.27;99514.09;88390;1271;77446;-70
2022/04/24 05:05:05;;;;;;;11.30;9.40;;;;;;;20.57;60.12;99516.66;88312;1271;83221;-70
2022/04/24 05:07:14;;;;;;;11.30;9.50;;;;;;;20.92;58.32;99528.10;88418;1271;98922;-69
2022/04/24 05:09:24;;;;;;;11.30;9.20;;;;;;;21.49;56.13;99518.92;88416;1271;87790;-70
2022/04/24 05:11:33;;;;;;;11.20;9.40;;;;;;;21.66;55.09;99516.96;88304;1271;94343;-64
2022/04/24 05:13:45;;;;;;;10.10;9.20;;;;;;;22.04;54.49;99520.30;88428;1271;78803;-60
2022/04/24 05:15:54;;;;;;;10.60;9.50;;;;;;;22.17;53.91;99514.09;88400;1271;80911;-61
2022/04/24 05:18:03;;;;;;;11.10;9.20;;;;;;;21.93;53.17;99511.40;88390;1271;99723;-59
2022/04/24 05:20:16;;;;;;;11.10;10.00;;;;;;;22.20;53.01;99517.48;88430;1271;88064;-60
2022/04/24 05:22:24;;;;;;;9.40;8.50;;;;;;;22.63;52.50;99516.68;88323;1271;94275;-59
2022/04/24 05:24:33;;;;;;;9.50;8.60;;;;;;;23.15;51.45;99513.85;88277;1271;79139;-58
2022/04/24 05:26:42;;;;;;;10.70;9.20;;;;;;;23.74;50.43;99514.55;88323;1271;81906;-69
2022/04/24 05:28:51;;;;;;;9.20;8.20;;;;;;;24.07;48.74;99511.77;88318;1271;98211;-70
2022/04/24 05:31:00;;;;;;;9.70;8.70;;;;;;;24.32;48.03;99509.41;88294;1271;86192;-70
2022/04/24 05:33:09;;;;;;;10.70;9.00;;;;;;;24.72;47.31;99515.35;88278;1271;95310;-60
2022/04/24 05:35:18;;;;;;;9.00;8.10;;;;;;;25.09;46.67;99509.31;88303;1271;78476;-60
2022/04/24 05:37:30;;;;;;;8.20;7.40;;;;;;;25.37;45.92;99509.60;88410;1271;81201;-60
2022/04/24 05:39:39;;;;;;;7.90;7.10;;;;;;;25.39;45.85;99512.98;88316;1271;99819;-59
2022/04/24 05:41:48;;;;;;;8.10;7.00;;;;;;;25.51;45.07;99519.78;88400;1271;88999;-59
2022/04/24 05:43:57;;;;;;;9.50;6.90;;;;;;;25.63;44.53;99522.89;88386;1271;95933;-61
2022/04/24 05:46:10;;;;;;;8.00;7.20;;;;;;;25.46;43.92;99528.44;88398;1270;78041;-61
2022/04/24 05:48:19;;;;;;;7.60;6.90;;;;;;;25.62;43.04;99528.67;88445;1271;80838;-60
2022/04/24 05:50:29;;;;;;;8.40;7.10;;;;;;;26.03;42.73;99525.26;88400;1271;100223;-60
2022/04/24 05:52:38;;;;;;;9.10;7.00;;;;;;;26.39;42.17;99526.52;88303;1271;89524;-69
2022/04/24 05:54:48;;;;;;;8.30;6.30;;;;;;;26.72;42.26;99529.98;88394;1271;94828;-67
2022/04/24 05:56:57;;;;;;;7.60;6.10;;;;;;;26.95;41.32;99530.10;88423;1271;78905;-69
2022/04/24 05:59:10;;;;;;;7.40;6.50;;;;;;;27.14;40.51;99532.98;88416;1271;80674;-70
2022/04/24 06:01:19;;;;;;;6.80;6.10;;;;;;;27.12;40.28;99534.08;88302;1271;98543;-69
2022/04/24 06:03:28;;;;;;;7.50;6.80;;;;;;;27.30;39.68;99536.84;88300;1271;88276;-70
2022/04/24 06:05:42;;;;;;;6.50;5.80;;;;;;;27.60;39.04;99533.18;88344;1271;94313;-68
2022/04/24 06:07:52;;;;;;;;;;;;;;;27.98;38.76;99532.73;88449;1271;77550;-60
2022/04/24 06:10:05;;;;;;;14.50;13.10;;;;;;;28.12;38.58;99529.71;88327;1271;80533;-59
2022/04/24 06:12:15;;;;;;;;;;;;;;;26.40;38.04;99539.29;88346;1271;99878;-60
2022/04/24 06:14:24;;;;;;;7.40;6.40;;;;;;;24.15;38.48;99541.75;88329;1271;88094;-59
2022/04/24 06:16:34;;;;;;;7.90;6.30;;;;;;;22.32;39.02;99547.52;88364;1271;94029;-60
2022/04/24 06:18:42;;;;;;;8.50;6.70;;;;;;;20.86;39.75;99553.95;88390;1271;78321;-70
2022/04/24 06:20:55;;;;;;;6.90;6.20;;;;;;;19.62;41.02;99553.30;88341;1271;80183;-70
2022/04/24 06:23:07;;;;;;;7.60;6.90;;;;;;;18.59;42.33;99552.02;88269;1271;99972;-68
2022/04/24 06:25:24;;;;;;;7.30;6.60;;;;;;;17.69;43.58;99554.38;88318;1271;88725;-71
2022/04/24 06:27:36;;;;;;;8.90;8.00;;;;;;;17.15;44.49;99563.34;88265;1274;95437;-70
2022/04/24 06:29:48;;;;;;;8.30;7.50;;;;;;;16.64;45.01;99565.57;88382;1270;79315;-70
2022/04/24 06:32:00;;;;;;;8.30;7.50;;;;;;;16.06;46.02;99559.88;88258;1274;82266;-60
2022/04/24 06:34:10;;;;;;;10.00;8.70;;;;;;;15.55;47.02;99557.92;88260;1274;100682;-61
2022/04/24 06:36:22;;;;;;;10.70;8.90;;;;;;;15.29;47.80;99554.70;88296;1271;88695;-59
2022/04/24 06:38:35;;;;;;;9.90;8.90;;;;;;;15.05;48.28;99557.71;88332;1271;94720;-69
2022/04/24 06:40:48;;;;;;;12.40;9.90;;;;;;;14.60;49.12;99569.41;88299;1271;78920;-69
2022/04/24 06:43:00;;;;;;;10.90;9.70;;;;;;;14.37;49.78;99573.13;88324;1271;81871;-71
2022/04/24 06:45:13;;;;;;;10.50;9.50;;;;;;;14.22;50.25;99576.91;88407;1271;98627;-70
2022/04/24 06:47:27;;;;;;;11.40;9.80;;;;;;;13.95;50.99;99574.19;88328;1271;89487;-58
2022/04/24 06:49:36;;;;;;;10.80;9.50;;;;;;;13.70;51.51;99574.21;88306;1271;95894;-59
2022/04/24 06:51:46;;;;;;;11.60;10.20;;;;;;;13.61;51.89;99573.59;88374;1271;78610;-61
2022/04/24 06:53:55;;;;;;;10.90;9.80;;;;;;;13.54;52.26;99573.88;88323;1271;81749;-58
2022/04/24 06:56:05;;;;;;;9.50;8.50;;;;;;;13.52;52.66;99575.67;88305;1271;99992;-60
2022/04/24 06:58:15;;;;;;;9.90;8.90;;;;;;;13.43;53.01;99570.84;88352;1271;88824;-69
2022/04/24 07:00:26;;;;;;;10.90;9.80;;;;;;;13.26;53.56;99574.63;88369;1271;95352;-70
2022/04/24 07:02:42;;;;;;;11.90;9.70;;;;;;;13.22;54.00;99577.48;88373;1271;78353;-59
2022/04/24 07:04:50;;;;;;;11.80;9.70;;;;;;;13.19;54.32;99585.77;88389;1271;79453;-60
2022/04/24 07:07:07;;;;;;;9.90;9.00;;;;;;;13.19;54.20;99590.00;88340;1271;100135;-60
2022/04/24 07:09:21;;;;;;;9.90;8.80;;;;;;;13.13;54.41;99595.61;88363;1271;87851;-58
2022/04/24 07:11:34;;;;;;;9.90;9.00;;;;;;;13.07;54.42;99597.03;88283;1271;94159;-60
2022/04/24 07:13:43;;;;;;;13.30;9.30;;;;;;;12.88;54.67;99601.00;88361;1271;78870;-60
2022/04/24 07:15:53;;;;;;;11.80;9.70;;;;;;;12.64;54.93;99599.61;88329;1271;80580;-57
2022/04/24 07:18:02;;;;;;;11.90;10.70;;;;;;;12.56;55.36;99596.19;88266;1271;98342;-59
2022/04/24 07:20:14;;;;;;;10.50;9.40;;;;;;;12.72;55.58;99596.36;88357;1271;89233;-60
2022/04/24 07:22:24;;;;;;;10.40;9.40;;;;;;;12.82;55.40;99598.98;88264;1271;91713;-71
2022/04/24 07:24:36;;;;;;;9.50;8.40;;;;;;;12.91;55.82;99593.92;88290;1271;79408;-71
2022/04/24 07:26:45;;;;;;;10.70;9.60;;;;;;;12.88;55.89;99590.12;88377;1271;82731;-70
2022/04/24 07:28:54;;;;;;;9.90;8.90;;;;;;;12.87;56.11;99590.02;88353;1271;100029;-71
2022/04/24 07:31:07;;;;;;;9.10;8.10;;;;;;;13.12;56.04;99584.40;88343;1271;87913;-71
2022/04/24 07:33:16;;;;;;;8.70;7.80;;;;;;;13.44;56.15;99582.64;88352;1271;94930;-60
2022/04/24 07:35:28;;;;;;;9.30;8.20;;;;;;;14.02;56.01;99583.07;88363;1271;79174;-59
2022/04/24 07:37:41;;;;;;;9.30;8.20;;;;;;;14.83;55.65;99582.89;88345;1271;80848;-73
2022/04/24 07:39:53;;;;;;;8.70;7.80;;;;;;;15.47;54.56;99581.70;88309;1271;97228;-73
2022/04/24 07:42:02;;;;;;;9.40;8.20;;;;;;;16.21;54.63;99580.96;88287;1271;88739;-61
2022/04/24 07:44:14;;;;;;;10.10;8.20;;;;;;;17.44;53.33;99578.74;88274;1271;94957;-60
2022/04/24 07:46:23;;;;;;;9.10;8.20;;;;;;;18.04;52.84;99571.70;88277;1271;79083;-60
2022/04/24 07:48:32;;;;;;;8.70;7.70;;;;;;;19.40;52.70;99565.30;88316;1271;81662;-60
2022/04/24 07:50:49;;;;;;;8.30;7.50;;;;;;;21.09;51.44;99569.58;88294;1271;100170;-60
2022/04/24 07:52:58;;;;;;;7.80;7.00;;;;;;;22.26;49.28;99562.44;88300;1271;88581;-60
2022/04/24 07:55:11;;;;;;;7.40;6.60;;;;;;;23.03;47.61;99563.85;88274;1271;92916;-60
2022/04/24 07:57:23;;;;;;;7.90;6.70;;;;;;;23.65;45.98;99561.17;88371;1271;78726;-69
2022/04/24 07:59:32;;;;;;;7.30;6.50;;;;;;;24.16;45.23;99564.09;88336;1271;82491;-70
2022/04/24 08:01:44;;;;;;;7.00;6.30;;;;;;;24.86;44.74;99567.27;88256;1274;99635;-71
2022/04/24 08:03:52;;;;;;;7.50;6.60;;;;;;;25.42;43.89;99569.39;88328;1271;87741;-72
2022/04/24 08:06:01;;;;;;;6.90;6.30;;;;;;;25.06;42.60;99567.24;88282;1271;96064;-72
2022/04/24 08:08:15;;;;;;;6.70;6.10;;;;;;;24.87;42.04;99571.42;88345;1271;78654;-73
2022/04/24 08:10:27;;;;;;;7.40;6.60;;;;;;;25.48;40.67;99572.11;88291;1271;80002;-70
2022/04/24 08:12:36;;;;;;;6.40;5.80;;;;;;;25.19;39.85;99567.77;88313;1271;97631;-59
2022/04/24 08:14:48;;;;;;;6.50;5.90;;;;;;;24.54;39.93;99566.38;88219;1274;88113;-61
2022/04/24 08:17:00;;;;;;;6.20;5.60;;;;;;;23.92;40.48;99563.30;88289;1271;95627;-60
2022/04/24 08:19:10;;;;;;;6.40;5.60;;;;;;;24.17;40.76;99561.98;88321;1271;80463;-60
2022/04/24 08:21:19;;;;;;;5.90;5.40;;;;;;;23.80;39.88;99566.55;88304;1271;83230;-61
2022/04/24 08:23:28;;;;;;;6.00;5.40;;;;;;;22.91;39.94;99568.16;88275;1271;100456;-72
2022/04/24 08:25:39;;;;;;;6.30;5.70;;;;;;;22.64;39.60;99562.16;88300;1271;89082;-71
2022/04/24 08:27:49;;;;;;;5.30;4.80;;;;;;;21.89;39.44;99556.67;88284;1271;95776;-71
2022/04/24 08:30:01;;;;;;;5.50;5.00;;;;;;;21.65;40.20;99558.15;88311;1271;78666;-72
2022/04/24 08:32:13;;;;;;;6.10;5.20;;;;;;;21.33;40.04;99556.42;88363;1271;80995;-72
2022/04/24 08:34:22;;;;;;;5.90;5.40;;;;;;;20.93;40.27;99557.76;88368;1271;99582;-71
2022/04/24 08:36:31;;;;;;;5.90;5.40;;;;;;;21.06;41.24;99555.70;88362;1271;87860;-71
2022/04/24 08:38:43;;;;;;;6.00;5.40;;;;;;;21.58;41.51;99553.67;88273;1271;93781;-60
2022/04/24 08:40:56;;;;;;;6.20;5.60;;;;;;;21.25;40.84;99553.85;88302;1271;80080;-72
2022/04/24 08:43:05;;;;;;;5.90;5.40;;;;;;;20.71;40.58;99555.25;88338;1271;83790;-71
2022/04/24 08:45:17;;;;;;;5.40;4.90;;;;;;;20.30;41.00;99550.58;88356;1271;99019;-72
2022/04/24 08:47:30;;;;;;;5.80;4.90;;;;;;;19.70;41.51;99545.39;88349;1271;89471;-60
2022/04/24 08:49:41;;;;;;;5.80;5.20;;;;;;;19.65;42.36;99544.29;88365;1271;95685;-60
2022/04/24 08:51:50;;;;;;;5.20;4.70;;;;;;;20.59;41.43;99540.81;88311;1271;78472;-61
2022/04/24 08:54:03;;;;;;;4.00;3.60;;;;;;;21.16;40.90;99539.77;88313;1271;80737;-59
2022/04/24 08:56:16;;;;;;;4.30;3.70;;;;;;;21.19;39.58;99535.67;88364;1271;100063;-60
2022/04/24 08:58:24;;;;;;;;;;;;;;;20.95;39.98;99536.92;88345;1271;87182;-73
2022/04/24 09:00:34;;;;;;;4.00;3.60;;;;;;;20.49;39.44;99537.57;88309;1271;95930;-60
2022/04/24 09:02:46;;;;;;;3.90;3.50;;;;;;;20.46;40.53;99539.17;88345;1271;77322;-71
2022/04/24 09:04:58;;;;;;;7.00;4.10;;;;;;;21.21;40.21;99536.00;88279;1271;83661;-71
2022/04/24 09:07:17;;;;;;;4.50;4.00;;;;;;;21.55;39.73;99532.21;88308;1271;99968;-70
2022/04/24 09:09:26;;;;;;;4.30;3.70;;;;;;;21.55;40.14;99527.14;88353;1271;87726;-60
2022/04/24 09:11:40;;;;;;;4.50;3.50;;;;;;;22.02;40.31;99527.85;88337;1271;96230;-62
2022/04/24 09:16:19;;;;;;;3.60;3.30;;;;;;;22.63;38.51;99522.95;88332;1271;83245;-61
2022/04/24 09:18:41;;;;;;;;;;;;;;;22.47;38.50;99524.35;88350;1270;100191;-60
2022/04/24 09:20:56;;;;;;;4.30;3.70;;;;;;;22.34;38.41;99522.88;88305;1271;88344;-62
2022/04/24 09:23:08;;;;;;;5.40;3.80;;;;;;;22.26;38.31;99525.57;88323;1271;92754;-72
2022/04/24 09:25:17;;;;;;;3.80;3.50;;;;;;;21.96;38.56;99531.56;88377;1270;77932;-71
2022/04/24 09:27:33;;;;;;;4.00;3.60;;;;;;;21.41;37.91;99529.05;88342;1271;80976;-60
2022/04/24 09:29:55;;;;;;;5.70;4.10;;;;;;;20.60;38.62;99535.99;88311;1271;97492;-60
2022/04/24 09:32:09;;;;;;;3.80;3.40;;;;;;;20.35;39.37;99538.25;88382;1271;88954;-61
2022/04/24 09:34:20;;;;;;;5.40;4.60;;;;;;;19.87;39.49;99539.57;88303;1271;95491;-61
2022/04/24 09:36:30;;;;;;;5.00;4.20;;;;;;;19.34;40.17;99539.39;88319;1271;79395;-60
2022/04/24 09:38:46;;;;;;;5.60;3.90;;;;;;;19.17;40.91;99533.76;88295;1271;80770;-60
2022/04/24 09:40:55;;;;;;;5.90;4.00;;;;;;;19.18;41.14;99531.35;88224;1274;99532;-59
2022/04/24 09:43:04;;;;;;;4.90;3.30;;;;;;;19.00;41.41;99529.73;88357;1271;89503;-72
2022/04/24 09:45:27;;;;;;;3.80;3.40;;;;;;;18.81;41.84;99528.13;88272;1271;94873;-71
2022/04/24 09:47:40;;;;;;;4.90;3.80;;;;;;;18.76;42.16;99530.18;88360;1271;78618;-60
2022/04/24 09:49:52;;;;;;;7.10;5.30;;;;;;;18.79;41.98;99534.05;88324;1271;81106;-71
2022/04/24 09:52:03;;;;;;;5.40;3.40;;;;;;;18.71;42.19;99538.85;88282;1271;99743;-71
2022/04/24 09:54:13;;;;;;;4.20;3.30;;;;;;;18.64;42.03;99544.59;88297;1271;86243;-71
2022/04/24 09:56:23;;;;;;;4.60;3.50;;;;;;;18.33;42.06;99546.11;88260;1271;94192;-70
2022/04/24 09:58:37;;;;;;;3.40;3.00;;;;;;;18.29;42.07;99550.07;88300;1271;79018;-61
2022/04/24 10:00:46;;;;;;;3.70;3.10;;;;;;;18.13;42.38;99546.05;88347;1271;81416;-61
2022/04/24 10:02:57;;;;;;;3.80;2.80;;;;;;;18.04;42.42;99547.66;88276;1271;98621;-59
2022/04/24 10:05:09;;;;;;;3.70;3.10;;;;;;;17.69;42.78;99550.73;88388;1271;89711;-62
2022/04/24 10:07:20;;;;;;;5.20;3.60;;;;;;;17.59;42.85;99557.77;88369;1271;95239;-71
2022/04/24 10:09:31;;;;;;;6.00;3.70;;;;;;;17.12;43.23;99565.64;88343;1271;79959;-71
2022/04/24 10:11:40;;;;;;;4.50;3.90;;;;;;;16.85;43.63;99566.40;88359;1271;82414;-71
2022/04/24 10:13:59;;;;;;;4.20;3.80;;;;;;;16.64;44.08;99564.89;88295;1271;99247;-71